Time;durP1;ratioP1;P1;durP2;ratioP2;P2;SDS_P1;SDS_P2;PMS_P1;PMS_P2;Temp;Humidity;BMP_temperature;BMP_pressure;BME280_temperature;BME280_humidity;BME280_pressure;Samples;Min_cycle;Max_cycle;Signal;HPM_P1;HPM_P2
2023/07/22 00:01:42;;;;;;;25.85;18.63;;;;;;;-148.88;100.00;-17125.47;4999800;28;20026;-80
2023/07/22 00:04:07;;;;;;;23.42;18.85;;;;;;;-148.88;100.00;-17125.47;4999371;28;20037;-80
2023/07/22 00:06:32;;;;;;;26.05;17.83;;;;;;;-148.88;100.00;-17125.47;5001075;28;20057;-81
2023/07/22 00:08:58;;;;;;;23.25;18.30;;;;;;;-148.88;100.00;-17125.47;5001016;28;20026;-81
2023/07/22 00:11:23;;;;;;;26.30;17.80;;;;;;;-148.88;100.00;-17125.47;5001169;28;20027;-80
2023/07/22 00:13:48;;;;;;;29.70;18.83;;;;;;;-148.88;100.00;-17125.47;5000946;28;20026;-80
2023/07/22 00:16:14;;;;;;;27.25;18.15;;;;;;;-148.88;100.00;-17125.47;5000022;28;20026;-81
2023/07/22 00:18:39;;;;;;;22.45;17.33;;;;;;;-148.88;100.00;-17125.47;5002861;28;20448;-80
2023/07/22 00:21:05;;;;;;;24.80;18.10;;;;;;;-148.88;100.00;-17125.47;5002356;28;20053;-81
2023/07/22 00:23:31;;;;;;;30.30;20.08;;;;;;;-148.88;100.00;-17125.47;5000488;28;20022;-80
2023/07/22 00:25:56;;;;;;;29.83;19.38;;;;;;;-148.88;100.00;-17125.47;5002071;28;20038;-81
2023/07/22 00:28:21;;;;;;;30.92;20.73;;;;;;;-148.88;100.00;-17125.47;5001541;28;20026;-81
2023/07/22 00:30:48;;;;;;;27.67;19.63;;;;;;;-148.88;100.00;-17125.47;4999566;28;20378;-81
2023/07/22 00:33:14;;;;;;;29.63;19.88;;;;;;;-148.88;100.00;-17125.47;4994166;28;20113;-80
2023/07/22 00:35:39;;;;;;;24.85;19.98;;;;;;;-148.88;100.00;-17125.47;4997666;28;20057;-80
2023/07/22 00:38:05;;;;;;;29.52;19.23;;;;;;;-148.88;100.00;-17125.47;4997488;28;20122;-80
2023/07/22 00:40:31;;;;;;;27.65;19.63;;;;;;;-148.88;100.00;-17125.47;4999706;28;20100;-80
2023/07/22 00:42:57;;;;;;;30.40;20.80;;;;;;;-148.88;100.00;-17125.47;5001292;28;20032;-80
2023/07/22 00:45:22;;;;;;;28.48;19.88;;;;;;;-148.88;100.00;-17125.47;4999222;28;20030;-81
2023/07/22 00:47:48;;;;;;;28.23;20.25;;;;;;;-148.88;100.00;-17125.47;5000437;28;20034;-80
2023/07/22 00:50:14;;;;;;;28.52;19.52;;;;;;;-148.88;100.00;-17125.47;5016093;28;20518;-81
2023/07/22 00:52:39;;;;;;;30.33;19.83;;;;;;;-148.88;100.00;-17125.47;5001512;28;20396;-80
2023/07/22 00:55:05;;;;;;;33.72;20.90;;;;;;;-148.88;100.00;-17125.47;5001573;28;20022;-81
2023/07/22 00:57:31;;;;;;;32.58;20.00;;;;;;;-148.88;100.00;-17125.47;5000617;28;20109;-81
2023/07/22 00:59:56;;;;;;;28.70;19.92;;;;;;;-148.88;100.00;-17125.47;5000618;28;20022;-81
2023/07/22 01:02:23;;;;;;;28.20;20.02;;;;;;;-148.88;100.00;-17125.47;5001760;28;20127;-81
2023/07/22 01:04:49;;;;;;;28.08;19.77;;;;;;;-148.88;100.00;-17125.47;5000555;28;20057;-80
2023/07/22 01:07:15;;;;;;;30.00;20.27;;;;;;;-148.88;100.00;-17125.47;5001148;28;20024;-81
2023/07/22 01:09:41;;;;;;;31.80;20.20;;;;;;;-148.88;100.00;-17125.47;4995582;28;20157;-80
2023/07/22 01:12:08;;;;;;;26.90;19.58;;;;;;;-148.88;100.00;-17125.47;4995651;28;20125;-79
2023/07/22 01:14:34;;;;;;;24.95;18.88;;;;;;;-148.88;100.00;-17125.47;4997979;28;20481;-80
2023/07/22 01:17:02;;;;;;;28.98;18.25;;;;;;;-148.88;100.00;-17125.47;4997833;28;20022;-80
2023/07/22 01:19:29;;;;;;;29.33;18.42;;;;;;;-148.88;100.00;-17125.47;4999045;28;20039;-78
2023/07/22 01:21:55;;;;;;;27.83;18.00;;;;;;;-148.88;100.00;-17125.47;4998011;28;20045;-80
2023/07/22 01:24:21;;;;;;;27.85;17.98;;;;;;;-148.88;100.00;-17125.47;4999283;28;20030;-81
2023/07/22 01:26:47;;;;;;;26.17;16.45;;;;;;;-148.88;100.00;-17125.47;5002069;28;20030;-81
2023/07/22 01:29:13;;;;;;;25.25;16.05;;;;;;;-148.88;100.00;-17125.47;5004956;28;20030;-81
2023/07/22 01:31:39;;;;;;;26.40;17.15;;;;;;;-148.88;100.00;-17125.47;5005808;28;20034;-81
2023/07/22 01:34:04;;;;;;;30.50;18.52;;;;;;;-148.88;100.00;-17125.47;5005794;28;20038;-81
2023/07/22 01:36:30;;;;;;;30.08;17.98;;;;;;;-148.88;100.00;-17125.47;5005480;28;20054;-82
2023/07/22 01:38:55;;;;;;;27.75;17.80;;;;;;;-148.88;100.00;-17125.47;5020441;28;20022;-80
2023/07/22 01:41:21;;;;;;;28.17;18.25;;;;;;;-148.88;100.00;-17125.47;5005442;28;20030;-81
2023/07/22 01:43:46;;;;;;;27.50;17.25;;;;;;;-148.88;100.00;-17125.47;5004009;28;20029;-81
2023/07/22 01:46:13;;;;;;;35.35;18.08;;;;;;;-148.88;100.00;-17125.47;5002567;28;20113;-80
2023/07/22 01:48:39;;;;;;;27.58;16.88;;;;;;;-148.88;100.00;-17125.47;5008473;23;20045;-71
2023/07/22 01:51:05;;;;;;;25.80;16.73;;;;;;;-148.88;100.00;-17125.47;4996968;28;20022;-72
2023/07/22 01:53:30;;;;;;;31.95;17.83;;;;;;;-148.88;100.00;-17125.47;4995612;28;20022;-72
2023/07/22 01:55:55;;;;;;;26.70;17.38;;;;;;;-148.88;100.00;-17125.47;4997112;28;20019;-71
2023/07/22 01:58:21;;;;;;;28.15;17.05;;;;;;;-148.88;100.00;-17125.47;4996692;28;20105;-71
2023/07/22 02:00:50;;;;;;;24.95;17.52;;;;;;;-148.88;100.00;-17125.47;4995546;28;20485;-71
2023/07/22 02:03:16;;;;;;;28.05;17.63;;;;;;;-148.88;100.00;-17125.47;4996976;28;20023;-72
2023/07/22 02:05:41;;;;;;;24.67;16.60;;;;;;;-148.88;100.00;-17125.47;4996579;28;20105;-71
2023/07/22 02:08:06;;;;;;;24.92;16.67;;;;;;;-148.88;100.00;-17125.47;4996497;28;20029;-72
2023/07/22 02:10:32;;;;;;;24.33;16.13;;;;;;;-148.88;100.00;-17125.47;4996470;28;20543;-71
2023/07/22 02:12:57;;;;;;;23.38;16.20;;;;;;;-148.88;100.00;-17125.47;4996508;28;20117;-71
2023/07/22 02:15:24;;;;;;;25.98;16.08;;;;;;;-148.88;100.00;-17125.47;4996472;28;20023;-71
2023/07/22 02:17:49;;;;;;;26.20;16.42;;;;;;;-148.88;100.00;-17125.47;4995129;28;20030;-71
2023/07/22 02:20:15;;;;;;;24.05;15.85;;;;;;;-148.88;100.00;-17125.47;4995181;28;20023;-72
2023/07/22 02:22:40;;;;;;;28.02;16.35;;;;;;;-148.88;100.00;-17125.47;4996718;28;20026;-72
2023/07/22 02:25:06;;;;;;;30.27;16.65;;;;;;;-148.88;100.00;-17125.47;4996304;28;20034;-72
2023/07/22 02:27:32;;;;;;;22.35;15.45;;;;;;;-148.88;100.00;-17125.47;4996201;28;20401;-71
2023/07/22 02:29:57;;;;;;;30.42;16.17;;;;;;;-148.88;100.00;-17125.47;4994860;28;20473;-72
2023/07/22 02:32:22;;;;;;;27.35;16.95;;;;;;;-148.88;100.00;-17125.47;4996201;28;20022;-72
2023/07/22 02:34:48;;;;;;;26.55;16.15;;;;;;;-148.88;100.00;-17125.47;4996377;28;20034;-71
2023/07/22 02:37:13;;;;;;;26.65;16.27;;;;;;;-148.88;100.00;-17125.47;4995967;28;20042;-72
2023/07/22 02:39:39;;;;;;;27.88;16.45;;;;;;;-148.88;100.00;-17125.47;4996032;28;20484;-71
2023/07/22 02:42:04;;;;;;;26.10;15.48;;;;;;;-148.88;100.00;-17125.47;4994695;28;20026;-71
2023/07/22 02:44:30;;;;;;;22.25;15.10;;;;;;;-148.88;100.00;-17125.47;4995875;28;20022;-71
2023/07/22 02:46:55;;;;;;;26.70;14.75;;;;;;;-148.88;100.00;-17125.47;4995658;28;20022;-72
2023/07/22 02:49:20;;;;;;;28.15;15.27;;;;;;;-148.88;100.00;-17125.47;4995891;28;20501;-72
2023/07/22 02:51:46;;;;;;;26.13;15.20;;;;;;;-148.88;100.00;-17125.47;4995958;28;20477;-71
2023/07/22 02:54:11;;;;;;;23.15;14.65;;;;;;;-148.88;100.00;-17125.47;4995688;28;20034;-71
2023/07/22 02:56:37;;;;;;;23.23;14.35;;;;;;;-148.88;100.00;-17125.47;4995718;28;20022;-71
2023/07/22 02:59:02;;;;;;;20.05;13.68;;;;;;;-148.88;100.00;-17125.47;4995789;28;20030;-71
2023/07/22 03:01:28;;;;;;;24.25;14.25;;;;;;;-148.88;100.00;-17125.47;4995703;28;20477;-73
2023/07/22 03:03:53;;;;;;;21.08;13.63;;;;;;;-148.88;100.00;-17125.47;4995535;28;20025;-71
2023/07/22 03:06:19;;;;;;;24.05;14.50;;;;;;;-148.88;100.00;-17125.47;4994227;28;20037;-71
2023/07/22 03:08:44;;;;;;;23.25;13.57;;;;;;;-148.88;100.00;-17125.47;4995499;28;20038;-71
2023/07/22 03:11:09;;;;;;;26.88;15.05;;;;;;;-148.88;100.00;-17125.47;4995364;28;20117;-71
2023/07/22 03:13:35;;;;;;;29.33;14.52;;;;;;;-148.88;100.00;-17125.47;4995331;28;20117;-71
2023/07/22 03:16:03;;;;;;;26.00;14.43;;;;;;;-148.88;100.00;-17125.47;4995313;28;20018;-71
2023/07/22 03:18:30;;;;;;;23.85;13.85;;;;;;;-148.88;100.00;-17125.47;4995237;28;20026;-71
2023/07/22 03:20:56;;;;;;;24.05;13.75;;;;;;;-148.88;100.00;-17125.47;4995220;28;20022;-71
2023/07/22 03:23:21;;;;;;;24.92;13.32;;;;;;;-148.88;100.00;-17125.47;4995619;28;20025;-72
2023/07/22 03:25:47;;;;;;;27.08;14.52;;;;;;;-148.88;100.00;-17125.47;4995214;28;20473;-72
2023/07/22 03:28:13;;;;;;;21.38;13.32;;;;;;;-148.88;100.00;-17125.47;4995119;28;20026;-72
2023/07/22 03:30:38;;;;;;;24.33;12.82;;;;;;;-148.88;100.00;-17125.47;4995165;28;20023;-72
2023/07/22 03:33:03;;;;;;;20.88;13.27;;;;;;;-148.88;100.00;-17125.47;4995230;28;20088;-72
2023/07/22 03:35:29;;;;;;;23.80;13.75;;;;;;;-148.88;100.00;-17125.47;4995024;28;20027;-72
2023/07/22 03:37:55;;;;;;;21.50;13.07;;;;;;;-148.88;100.00;-17125.47;4995020;28;20032;-72
2023/07/22 03:40:22;;;;;;;25.55;13.77;;;;;;;-148.88;100.00;-17125.47;4993747;28;20023;-72
2023/07/22 03:42:51;;;;;;;22.70;13.18;;;;;;;-148.88;100.00;-17125.47;4993585;28;20518;-73
2023/07/22 03:45:20;;;;;;;25.67;14.02;;;;;;;-148.88;100.00;-17125.47;4994958;28;20109;-72
2023/07/22 03:47:51;;;;;;;23.15;14.07;;;;;;;-148.88;100.00;-17125.47;4994364;28;20038;-73
2023/07/22 03:50:16;;;;;;;24.25;13.50;;;;;;;-148.88;100.00;-17125.47;4994346;28;20081;-72
2023/07/22 03:52:42;;;;;;;23.13;13.50;;;;;;;-148.88;100.00;-17125.47;4993548;28;20073;-72
2023/07/22 03:55:08;;;;;;;24.58;13.55;;;;;;;-148.88;100.00;-17125.47;4993708;28;20397;-72
2023/07/22 03:57:34;;;;;;;22.55;13.43;;;;;;;-148.88;100.00;-17125.47;4994692;28;20397;-73
2023/07/22 04:00:00;;;;;;;26.77;14.25;;;;;;;-148.88;100.00;-17125.47;4994702;28;20018;-72
2023/07/22 04:02:25;;;;;;;22.55;12.80;;;;;;;-148.88;100.00;-17125.47;4994717;28;20463;-73
2023/07/22 04:04:52;;;;;;;20.52;13.82;;;;;;;-148.88;100.00;-17125.47;4994816;28;20033;-72
2023/07/22 04:07:18;;;;;;;19.55;12.63;;;;;;;-148.88;100.00;-17125.47;4994522;28;20026;-72
2023/07/22 04:09:45;;;;;;;25.92;13.48;;;;;;;-148.88;100.00;-17125.47;4994529;28;20030;-71
2023/07/22 04:12:10;;;;;;;22.02;13.60;;;;;;;-148.88;100.00;-17125.47;4993365;28;20030;-72
2023/07/22 04:14:35;;;;;;;26.17;14.48;;;;;;;-148.88;100.00;-17125.47;4994737;28;20085;-72
2023/07/22 04:17:01;;;;;;;22.15;13.98;;;;;;;-148.88;100.00;-17125.47;4994368;28;20101;-72
2023/07/22 04:19:26;;;;;;;22.50;14.30;;;;;;;-148.88;100.00;-17125.47;4994271;28;20037;-71
2023/07/22 04:21:52;;;;;;;22.25;13.40;;;;;;;-148.88;100.00;-17125.47;4994341;28;20014;-72
2023/07/22 04:24:17;;;;;;;25.70;12.95;;;;;;;-148.88;100.00;-17125.47;4994219;28;20041;-72
2023/07/22 04:26:43;;;;;;;20.23;13.23;;;;;;;-148.88;100.00;-17125.47;4992916;28;20030;-71
2023/07/22 04:29:09;;;;;;;23.73;13.93;;;;;;;-148.88;100.00;-17125.47;4994132;28;20026;-72
2023/07/22 04:31:34;;;;;;;26.90;14.68;;;;;;;-148.88;100.00;-17125.47;4993951;28;20030;-72
2023/07/22 04:34:00;;;;;;;23.50;13.77;;;;;;;-148.88;100.00;-17125.47;4992782;28;20465;-72
2023/07/22 04:36:25;;;;;;;25.88;15.07;;;;;;;-148.88;100.00;-17125.47;4994041;28;20076;-72
2023/07/22 04:38:51;;;;;;;25.10;14.38;;;;;;;-148.88;100.00;-17125.47;4994180;28;20050;-72
2023/07/22 04:41:16;;;;;;;22.55;13.82;;;;;;;-148.88;100.00;-17125.47;4994031;28;20019;-72
2023/07/22 04:43:41;;;;;;;27.70;14.95;;;;;;;-148.88;100.00;-17125.47;4994051;28;20050;-73
2023/07/22 04:46:07;;;;;;;22.35;13.98;;;;;;;-148.88;100.00;-17125.47;4993843;28;20028;-72
2023/07/22 04:48:32;;;;;;;25.95;14.23;;;;;;;-148.88;100.00;-17125.47;4992693;28;20037;-72
2023/07/22 04:50:58;;;;;;;25.83;15.07;;;;;;;-148.88;100.00;-17125.47;4993963;28;20492;-72
2023/07/22 04:53:23;;;;;;;25.02;14.80;;;;;;;-148.88;100.00;-17125.47;4992673;28;20077;-73
2023/07/22 04:55:49;;;;;;;26.92;15.02;;;;;;;-148.88;100.00;-17125.47;4993789;28;20029;-73
2023/07/22 04:58:14;;;;;;;28.08;15.50;;;;;;;-148.88;100.00;-17125.47;4993787;28;20026;-72
2023/07/22 05:00:41;;;;;;;25.35;14.93;;;;;;;-148.88;100.00;-17125.47;4993896;28;20142;-72
2023/07/22 05:03:07;;;;;;;28.48;15.85;;;;;;;-148.88;100.00;-17125.47;4995988;28;20026;-73
2023/07/22 05:05:32;;;;;;;27.83;15.52;;;;;;;-148.88;100.00;-17125.47;4998308;28;20030;-72
2023/07/22 05:07:58;;;;;;;23.63;14.63;;;;;;;-148.88;100.00;-17125.47;4997871;28;20030;-72
2023/07/22 05:10:23;;;;;;;26.58;15.05;;;;;;;-148.88;100.00;-17125.47;4998454;28;20030;-72
2023/07/22 05:12:48;;;;;;;25.48;15.88;;;;;;;-148.88;100.00;-17125.47;4997792;28;20068;-72
2023/07/22 05:15:14;;;;;;;30.40;16.40;;;;;;;-148.88;100.00;-17125.47;4996505;28;20026;-72
2023/07/22 05:17:40;;;;;;;26.13;14.95;;;;;;;-148.88;100.00;-17125.47;4997646;28;20026;-72
2023/07/22 05:20:06;;;;;;;26.05;15.32;;;;;;;-148.88;100.00;-17125.47;4997613;28;20034;-72
2023/07/22 05:22:32;;;;;;;31.48;16.27;;;;;;;-148.88;100.00;-17125.47;4997638;28;20429;-72
2023/07/22 05:24:57;;;;;;;28.17;15.73;;;;;;;-148.88;100.00;-17125.47;4997645;28;20029;-72
2023/07/22 05:27:23;;;;;;;30.42;16.13;;;;;;;-148.88;100.00;-17125.47;4997083;28;20037;-72
2023/07/22 05:29:48;;;;;;;28.83;16.17;;;;;;;-148.88;100.00;-17125.47;4997309;28;20027;-72
2023/07/22 05:32:13;;;;;;;30.15;16.65;;;;;;;-148.88;100.00;-17125.47;4997313;28;20022;-72
2023/07/22 05:34:39;;;;;;;24.52;16.50;;;;;;;-148.88;100.00;-17125.47;4996419;28;20064;-73
2023/07/22 05:37:04;;;;;;;29.63;16.83;;;;;;;-148.88;100.00;-17125.47;4997530;28;20058;-73
2023/07/22 05:39:30;;;;;;;31.20;17.70;;;;;;;-148.88;100.00;-17125.47;4997687;28;20053;-72
2023/07/22 05:41:55;;;;;;;30.02;17.85;;;;;;;-148.88;100.00;-17125.47;4997647;28;20030;-71
2023/07/22 05:44:21;;;;;;;33.25;19.13;;;;;;;-148.88;100.00;-17125.47;4997624;28;20026;-72
2023/07/22 05:46:46;;;;;;;34.38;19.27;;;;;;;-148.88;100.00;-17125.47;4996820;28;20037;-71
2023/07/22 05:49:12;;;;;;;28.77;18.17;;;;;;;-148.88;100.00;-17125.47;4997039;28;20540;-72
2023/07/22 05:51:37;;;;;;;30.52;20.02;;;;;;;-148.88;100.00;-17125.47;4997317;28;20086;-72
2023/07/22 05:54:03;;;;;;;31.50;19.35;;;;;;;-148.88;100.00;-17125.47;4996986;28;20105;-72
2023/07/22 05:56:28;;;;;;;31.75;19.27;;;;;;;-148.88;100.00;-17125.47;4997663;28;20037;-72
2023/07/22 05:58:54;;;;;;;34.90;19.48;;;;;;;-148.88;100.00;-17125.47;4995918;28;20026;-72
2023/07/22 06:01:19;;;;;;;31.08;19.58;;;;;;;-148.88;100.00;-17125.47;4997030;28;20473;-72
2023/07/22 06:03:45;;;;;;;29.67;18.58;;;;;;;-148.88;100.00;-17125.47;4995573;28;20030;-72
2023/07/22 06:06:10;;;;;;;27.85;18.42;;;;;;;-148.88;100.00;-17125.47;4997003;28;20477;-71
2023/07/22 06:08:36;;;;;;;30.92;18.42;;;;;;;-148.88;100.00;-17125.47;4996939;28;20400;-73
2023/07/22 06:11:01;;;;;;;25.23;16.95;;;;;;;-148.88;100.00;-17125.47;4997526;28;20027;-72
2023/07/22 06:13:27;;;;;;;28.48;18.10;;;;;;;-148.88;100.00;-17125.47;4996526;28;20034;-71
2023/07/22 06:15:52;;;;;;;32.63;17.60;;;;;;;-148.88;100.00;-17125.47;4995325;28;20018;-72
2023/07/22 06:18:18;;;;;;;25.25;17.65;;;;;;;-148.88;100.00;-17125.47;4997005;28;20444;-72
2023/07/22 06:20:44;;;;;;;30.60;18.58;;;;;;;-148.88;100.00;-17125.47;4996601;28;20025;-72
2023/07/22 06:23:09;;;;;;;27.80;16.77;;;;;;;-148.88;100.00;-17125.47;4996590;28;20029;-71
2023/07/22 06:25:35;;;;;;;31.52;17.77;;;;;;;-148.88;100.00;-17125.47;4996629;28;20054;-72
2023/07/22 06:28:01;;;;;;;27.10;17.10;;;;;;;-148.88;100.00;-17125.47;4996346;28;20109;-72
2023/07/22 06:30:27;;;;;;;26.88;17.02;;;;;;;-148.88;100.00;-17125.47;4996173;28;20481;-72
2023/07/22 06:32:52;;;;;;;26.42;17.30;;;;;;;-148.88;100.00;-17125.47;4996316;28;20404;-71
2023/07/22 06:35:17;;;;;;;28.60;16.23;;;;;;;-148.88;100.00;-17125.47;4995085;28;20026;-71
2023/07/22 06:37:43;;;;;;;25.63;16.75;;;;;;;-148.88;100.00;-17125.47;4996225;28;20073;-71
2023/07/22 06:40:08;;;;;;;26.58;17.40;;;;;;;-148.88;100.00;-17125.47;4996167;28;20018;-72
2023/07/22 06:42:34;;;;;;;26.92;17.27;;;;;;;-148.88;100.00;-17125.47;4994915;28;20026;-72
2023/07/22 06:44:59;;;;;;;28.48;16.55;;;;;;;-148.88;100.00;-17125.47;4996033;28;20022;-72
2023/07/22 06:47:25;;;;;;;27.20;16.83;;;;;;;-148.88;100.00;-17125.47;4996912;28;20030;-71
2023/07/22 06:49:53;;;;;;;22.08;15.85;;;;;;;-148.88;100.00;-17125.47;4996321;28;20033;-72
2023/07/22 06:52:18;;;;;;;22.58;15.15;;;;;;;-148.88;100.00;-17125.47;4996389;28;20438;-72
2023/07/22 06:54:43;;;;;;;21.65;14.50;;;;;;;-148.88;100.00;-17125.47;4996289;28;20037;-71
2023/07/22 06:57:09;;;;;;;22.75;15.52;;;;;;;-148.88;100.00;-17125.47;4996320;28;20109;-71
2023/07/22 06:59:34;;;;;;;25.80;15.35;;;;;;;-148.88;100.00;-17125.47;4996169;28;20196;-72
2023/07/22 07:02:00;;;;;;;22.73;15.00;;;;;;;-148.88;100.00;-17125.47;4997124;28;20046;-71
2023/07/22 07:04:26;;;;;;;22.83;14.50;;;;;;;-148.88;100.00;-17125.47;4997530;28;20499;-71
2023/07/22 07:06:51;;;;;;;20.67;14.68;;;;;;;-148.88;100.00;-17125.47;4995666;28;20045;-71
2023/07/22 07:09:17;;;;;;;26.23;15.63;;;;;;;-148.88;100.00;-17125.47;4996393;28;20393;-71
2023/07/22 07:11:42;;;;;;;25.63;15.00;;;;;;;-148.88;100.00;-17125.47;4996729;28;20022;-71
2023/07/22 07:14:07;;;;;;;21.75;15.18;;;;;;;-148.88;100.00;-17125.47;4996017;28;20097;-72
2023/07/22 07:16:33;;;;;;;21.25;14.25;;;;;;;-148.88;100.00;-17125.47;4995683;28;20465;-72
2023/07/22 07:19:00;;;;;;;24.15;15.00;;;;;;;-148.88;100.00;-17125.47;4996622;28;20050;-72
2023/07/22 07:21:26;;;;;;;25.08;16.60;;;;;;;-148.88;100.00;-17125.47;4996849;28;20030;-71
2023/07/22 07:23:53;;;;;;;27.52;16.13;;;;;;;-148.88;100.00;-17125.47;4995914;28;20026;-72
2023/07/22 07:26:19;;;;;;;21.95;15.02;;;;;;;-148.88;100.00;-17125.47;4995589;28;20030;-72
2023/07/22 07:28:46;;;;;;;24.73;15.93;;;;;;;-148.88;100.00;-17125.47;4994518;28;20027;-71
2023/07/22 07:31:11;;;;;;;26.15;15.95;;;;;;;-148.88;100.00;-17125.47;4994218;28;20030;-71
2023/07/22 07:33:37;;;;;;;22.17;15.77;;;;;;;-148.88;100.00;-17125.47;4995361;28;20022;-72
2023/07/22 07:36:03;;;;;;;22.85;15.07;;;;;;;-148.88;100.00;-17125.47;4995383;28;20513;-72
2023/07/22 07:38:28;;;;;;;26.27;15.95;;;;;;;-148.88;100.00;-17125.47;5010474;28;20025;-71
2023/07/22 07:41:00;;;;;;;25.60;15.75;;;;;;;-148.88;100.00;-17125.47;4995058;28;20018;-71
2023/07/22 07:43:26;;;;;;;22.25;15.27;;;;;;;-148.88;100.00;-17125.47;4995126;28;20034;-72
2023/07/22 07:46:12;;;;;;;22.98;15.48;;;;;;;-148.88;100.00;-17125.47;4995095;28;20049;-72
2023/07/22 07:48:38;;;;;;;26.63;16.42;;;;;;;-148.88;100.00;-17125.47;4995145;28;20065;-72
2023/07/22 07:51:03;;;;;;;22.42;15.73;;;;;;;-148.88;100.00;-17125.47;4994981;28;20065;-71
2023/07/22 07:53:28;;;;;;;21.23;15.68;;;;;;;-148.88;100.00;-17125.47;4995265;28;20050;-73
2023/07/22 07:55:54;;;;;;;21.40;15.07;;;;;;;-148.88;100.00;-17125.47;4994898;28;20485;-73
2023/07/22 07:58:19;;;;;;;23.70;14.88;;;;;;;-148.88;100.00;-17125.47;4995272;28;20388;-72
2023/07/22 08:00:44;;;;;;;22.50;14.80;;;;;;;-148.88;100.00;-17125.47;4995128;28;20022;-72
2023/07/22 08:03:12;;;;;;;20.95;14.75;;;;;;;-148.88;100.00;-17125.47;4995044;28;20053;-72
2023/07/22 08:05:37;;;;;;;21.75;14.45;;;;;;;-148.88;100.00;-17125.47;4995051;28;20049;-73
2023/07/22 08:08:03;;;;;;;21.50;13.90;;;;;;;-148.88;100.00;-17125.47;4995220;28;20481;-72
2023/07/22 08:10:28;;;;;;;23.63;14.15;;;;;;;-148.88;100.00;-17125.47;4993773;28;20026;-72
2023/07/22 08:12:53;;;;;;;20.20;13.35;;;;;;;-148.88;100.00;-17125.47;4994729;28;20034;-72
2023/07/22 08:15:20;;;;;;;19.15;13.57;;;;;;;-148.88;100.00;-17125.47;4994231;28;20081;-72
2023/07/22 08:17:45;;;;;;;21.17;13.10;;;;;;;-148.88;100.00;-17125.47;4994290;28;20065;-72
2023/07/22 08:20:11;;;;;;;19.30;12.65;;;;;;;-148.88;100.00;-17125.47;4994537;28;20026;-72
2023/07/22 08:22:36;;;;;;;18.95;12.30;;;;;;;-148.88;100.00;-17125.47;4993070;28;20022;-72
2023/07/22 08:25:02;;;;;;;19.88;13.77;;;;;;;-148.88;100.00;-17125.47;4994120;28;20018;-72
2023/07/22 08:27:28;;;;;;;20.23;12.88;;;;;;;-148.88;100.00;-17125.47;4992967;28;20034;-71
2023/07/22 08:29:54;;;;;;;18.08;13.88;;;;;;;-148.88;100.00;-17125.47;4992777;28;20377;-73
2023/07/22 08:32:19;;;;;;;19.30;13.82;;;;;;;-148.88;100.00;-17125.47;4994124;28;20025;-73
2023/07/22 08:34:46;;;;;;;18.48;14.43;;;;;;;-148.88;100.00;-17125.47;4994346;28;20018;-72
2023/07/22 08:37:12;;;;;;;19.50;14.27;;;;;;;-148.88;100.00;-17125.47;4994060;28;20033;-72
2023/07/22 08:39:37;;;;;;;17.65;13.45;;;;;;;-148.88;99.54;-17125.47;4992768;28;20022;-72
2023/07/22 08:42:04;;;;;;;20.08;13.57;;;;;;;-148.88;98.14;-17125.47;4994181;28;20475;-72
2023/07/22 08:44:35;;;;;;;18.38;13.80;;;;;;;-148.88;99.62;-17125.47;4992556;28;20034;-72
2023/07/22 08:47:03;;;;;;;16.55;13.25;;;;;;;-148.88;97.26;-17125.47;4992348;28;20112;-72
2023/07/22 08:49:30;;;;;;;18.25;13.07;;;;;;;-148.88;97.47;-17125.47;4993742;28;20026;-72
2023/07/22 08:51:57;;;;;;;17.60;12.48;;;;;;;-148.88;96.40;-17125.47;4993622;28;20026;-72
2023/07/22 08:54:23;;;;;;;14.90;11.02;;;;;;;-148.88;96.25;-17125.47;4993742;28;20026;-72
2023/07/22 08:56:50;;;;;;;15.68;10.95;;;;;;;-148.88;95.91;-17125.47;4993540;28;20026;-72
2023/07/22 08:59:19;;;;;;;16.35;10.25;;;;;;;-148.88;95.30;-17125.47;4992367;28;20400;-72
2023/07/22 09:01:48;;;;;;;15.52;9.82;;;;;;;-148.88;93.65;-17125.47;4993797;28;20485;-72
2023/07/22 09:04:13;;;;;;;14.85;9.40;;;;;;;-148.88;94.63;-17125.47;4993577;28;20034;-73
2023/07/22 09:06:39;;;;;;;16.00;10.52;;;;;;;-148.88;92.07;-17125.47;4993450;28;20054;-73
2023/07/22 09:09:07;;;;;;;13.15;9.30;;;;;;;-148.88;93.45;-17125.47;4993571;28;20027;-73
2023/07/22 09:11:34;;;;;;;12.77;8.93;;;;;;;-148.88;88.66;-17125.47;4993481;28;20053;-72
2023/07/22 09:14:01;;;;;;;12.48;8.27;;;;;;;-148.88;88.07;-17125.47;4993519;28;20030;-72
2023/07/22 09:16:28;;;;;;;14.63;9.35;;;;;;;-148.88;91.85;-17125.47;4993389;28;20436;-72
2023/07/22 09:19:00;;;;;;;13.77;9.48;;;;;;;-148.88;92.41;-17125.47;4993509;28;20023;-73
2023/07/22 09:21:25;;;;;;;13.52;9.15;;;;;;;-148.88;88.85;-17125.47;4993459;28;20022;-72
2023/07/22 09:23:50;;;;;;;13.48;8.43;;;;;;;-148.88;89.55;-17125.47;4993416;28;20032;-72
2023/07/22 09:26:17;;;;;;;11.95;7.93;;;;;;;-148.88;88.23;-17125.47;4993353;28;20064;-72
2023/07/22 09:28:56;;;;;;;15.80;8.60;;;;;;;-148.88;90.00;-17125.47;4993380;28;20027;-72
2023/07/22 09:31:24;;;;;;;11.98;7.80;;;;;;;-148.88;89.79;-17125.47;4993310;28;20031;-72
2023/07/22 09:33:50;;;;;;;11.63;7.35;;;;;;;-148.88;90.19;-17125.47;4993346;28;20034;-72
2023/07/22 09:36:16;;;;;;;13.32;8.13;;;;;;;-148.88;88.26;-17125.47;4993258;28;20392;-72
2023/07/22 09:38:41;;;;;;;14.13;8.70;;;;;;;-148.88;86.92;-17125.47;4993310;28;20026;-72
2023/07/22 09:41:08;;;;;;;16.10;8.20;;;;;;;-148.88;88.06;-17125.47;4993531;28;20015;-72
2023/07/22 09:43:38;;;;;;;13.80;8.35;;;;;;;-148.88;85.14;-17125.47;4993333;28;20027;-72
2023/07/22 09:46:10;;;;;;;13.60;8.57;;;;;;;-148.88;85.39;-17125.47;4993513;28;20547;-72
2023/07/22 09:48:40;;;;;;;13.20;8.48;;;;;;;-148.88;84.95;-17125.47;4995490;28;20505;-72
2023/07/22 09:51:06;;;;;;;12.10;7.63;;;;;;;-148.88;84.24;-17125.47;4996869;28;20027;-74
2023/07/22 09:53:31;;;;;;;11.52;8.45;;;;;;;-148.88;86.41;-17125.47;4997157;28;20156;-74
2023/07/22 09:56:03;;;;;;;13.88;8.98;;;;;;;-148.88;89.13;-17125.47;4997086;28;20500;-73
2023/07/22 09:58:30;;;;;;;13.95;9.13;;;;;;;-148.88;93.12;-17125.47;4996750;28;20607;-73
2023/07/22 10:00:57;;;;;;;14.18;9.45;;;;;;;-148.88;93.32;-17125.47;4996695;28;20441;-73
2023/07/22 10:03:29;;;;;;;16.08;9.57;;;;;;;-148.88;93.61;-17125.47;4996724;28;20037;-73
2023/07/22 10:05:54;;;;;;;15.88;10.45;;;;;;;-148.88;93.33;-17125.47;4996759;28;20165;-73
2023/07/22 10:08:22;;;;;;;14.38;9.73;;;;;;;-148.88;92.41;-17125.47;4995300;28;20135;-73
2023/07/22 10:10:53;;;;;;;14.43;9.77;;;;;;;-148.88;92.99;-17125.47;4996806;28;20469;-73
2023/07/22 10:13:19;;;;;;;13.90;10.07;;;;;;;-148.88;90.54;-17125.47;4995316;28;20065;-73
2023/07/22 10:15:45;;;;;;;12.90;9.10;;;;;;;-148.88;90.91;-17125.47;4996495;28;20076;-73
2023/07/22 10:18:11;;;;;;;15.95;10.38;;;;;;;-148.88;90.97;-17125.47;4996380;28;20022;-73
2023/07/22 10:20:38;;;;;;;17.55;11.05;;;;;;;-148.88;91.10;-17125.47;4996470;28;20096;-74
2023/07/22 10:23:04;;;;;;;17.42;10.77;;;;;;;-148.88;94.94;-17125.47;4996372;28;20077;-73
2023/07/22 10:25:30;;;;;;;18.52;11.05;;;;;;;-148.88;88.17;-17125.47;4996313;28;20018;-74
2023/07/22 10:27:55;;;;;;;14.38;9.65;;;;;;;-148.88;86.44;-17125.47;4996158;28;20022;-73
2023/07/22 10:30:21;;;;;;;18.70;10.52;;;;;;;-148.88;83.76;-17125.47;4996103;28;20177;-73
2023/07/22 10:32:49;;;;;;;13.30;10.00;;;;;;;-148.88;82.65;-17125.47;4996150;28;20022;-73
2023/07/22 10:35:29;;;;;;;16.13;10.82;;;;;;;-148.88;82.44;-17125.47;4996116;28;20042;-73
2023/07/22 10:37:55;;;;;;;13.80;9.75;;;;;;;-148.88;82.44;-17125.47;4995975;28;20033;-73
2023/07/22 10:40:29;;;;;;;15.05;11.02;;;;;;;-148.88;84.86;-17125.47;4996040;28;20026;-73
2023/07/22 10:42:59;;;;;;;13.10;9.05;;;;;;;-148.88;78.18;-17125.47;4996027;28;20049;-73
2023/07/22 10:45:30;;;;;;;13.45;8.60;;;;;;;-148.88;76.59;-17125.47;4996578;28;20026;-73